Cache, Oklahoma
Current Conditions -  °F | °C
As of 5:53 PM on Tuesday 25 Nov 2014 (Local Time) from KLAW Reporting Station
Clear Clear  
Wind Chill: 42°   Ceiling: Unl
Heat Index: 46°   Visibility: 10mi
Dew Point: 31°   Wind: 7mph
Humidity: 56%   Direction: 170°S
Pressure: 30.1"   Gusts: NA
Location:  34.63°N, 98.63°W
Report Text: KLAW 252353Z 17006KT 10SM CLR 08/M01 A3010 RMK AO2 SLP200 T00781006 10133 20078 58015
Loading
Personal Weather Stations






























Interactive Weather Map New forecast layout! Learn more

10-Day Weather Forecast

Advertisements
Track Severe Weather on mobile